createdAt,value
2017-10-01T00:00:07.886Z,13.14
2017-10-01T00:00:48.469Z,13.2
2017-10-01T00:01:29.038Z,13.23
2017-10-01T00:02:09.617Z,13.28
2017-10-01T00:02:50.200Z,13.22
2017-10-01T00:03:30.768Z,13.19
2017-10-01T00:04:11.347Z,13.26
2017-10-01T00:04:51.926Z,13.28
2017-10-01T00:05:32.509Z,13.22
2017-10-01T00:06:13.091Z,13.22
2017-10-01T00:07:50.517Z,13.22
2017-10-01T00:08:31.092Z,13.12
2017-10-01T00:09:11.682Z,13.12
2017-10-01T00:09:52.258Z,13.22
2017-10-01T00:10:32.828Z,13.19
2017-10-01T00:11:13.414Z,13.19
2017-10-01T00:11:54.002Z,13.23
2017-10-01T00:12:34.572Z,13.25
2017-10-01T00:13:15.139Z,13.17
2017-10-01T00:13:55.722Z,13.17
2017-10-01T00:14:36.299Z,13.2
2017-10-01T00:15:16.878Z,13.22
2017-10-01T00:15:57.457Z,13.19
2017-10-01T00:16:38.035Z,13.17
2017-10-01T00:17:18.614Z,13.2
2017-10-01T00:17:59.197Z,13.12
2017-10-01T00:18:39.772Z,13.15
2017-10-01T00:19:20.343Z,13.08
2017-10-01T00:20:00.920Z,13.1
2017-10-01T00:20:41.497Z,13.14
2017-10-01T00:21:22.078Z,13.1
2017-10-01T00:22:02.654Z,13.08
2017-10-01T00:22:43.235Z,13.11
2017-10-01T00:23:23.814Z,13.05
2017-10-01T00:24:04.392Z,13
2017-10-01T00:24:44.971Z,12.96
2017-10-01T00:25:25.564Z,13.04
2017-10-01T00:26:06.138Z,12.96
2017-10-01T00:26:46.727Z,12.97
2017-10-01T00:27:27.302Z,12.92
2017-10-01T00:28:07.891Z,12.93
2017-10-01T00:28:48.478Z,12.92
2017-10-01T00:29:29.054Z,13
2017-10-01T00:30:24.452Z,12.93
2017-10-01T00:31:05.027Z,12.96
2017-10-01T00:31:45.602Z,12.92
2017-10-01T00:32:26.179Z,12.87
2017-10-01T00:33:06.758Z,12.9
2017-10-01T00:33:47.340Z,12.87
2017-10-01T00:34:27.921Z,12.83
2017-10-01T00:35:08.518Z,12.89
2017-10-01T00:35:49.120Z,12.86
2017-10-01T00:36:29.704Z,12.95
2017-10-01T00:37:10.287Z,12.87
2017-10-01T00:37:50.859Z,12.92
2017-10-01T00:38:31.433Z,12.82
2017-10-01T00:39:12.019Z,12.89
2017-10-01T00:39:52.604Z,12.83
2017-10-01T00:40:33.177Z,12.96
2017-10-01T00:41:13.759Z,12.89
2017-10-01T00:41:54.340Z,12.85
2017-10-01T00:42:34.919Z,12.86
2017-10-01T00:43:15.504Z,12.9
2017-10-01T00:43:56.075Z,12.86
2017-10-01T00:44:36.634Z,12.83
2017-10-01T00:45:17.224Z,12.87
2017-10-01T00:45:57.805Z,12.93
2017-10-01T00:46:38.367Z,12.93
2017-10-01T00:47:18.935Z,12.87
2017-10-01T00:47:59.525Z,12.87
2017-10-01T00:48:40.106Z,12.9
2017-10-01T00:49:20.682Z,12.87
2017-10-01T00:50:01.253Z,12.82
2017-10-01T00:50:56.749Z,12.85
2017-10-01T00:51:37.325Z,12.87
2017-10-01T00:52:17.902Z,12.87
2017-10-01T00:52:58.487Z,12.83
2017-10-01T00:53:39.065Z,12.86
2017-10-01T00:54:19.644Z,12.82
2017-10-01T00:55:00.220Z,12.86
2017-10-01T00:55:40.804Z,12.72
2017-10-01T00:56:21.390Z,12.86
2017-10-01T00:57:01.961Z,12.82
2017-10-01T00:57:42.540Z,12.77
2017-10-01T00:58:23.132Z,12.85
2017-10-01T00:59:03.707Z,12.86
2017-10-01T00:59:44.291Z,12.79
2017-10-01T01:00:24.876Z,12.85
2017-10-01T01:01:05.455Z,12.86
2017-10-01T01:01:46.036Z,12.77
2017-10-01T01:02:26.621Z,12.92
2017-10-01T01:03:07.210Z,12.79
2017-10-01T01:03:47.797Z,12.83
2017-10-01T01:04:28.378Z,12.71
2017-10-01T01:05:08.966Z,12.82
2017-10-01T01:05:49.540Z,12.85
2017-10-01T01:06:30.124Z,12.82
2017-10-01T01:07:10.691Z,12.75
2017-10-01T01:07:51.273Z,12.86
2017-10-01T01:08:31.855Z,12.74
2017-10-01T01:09:12.444Z,12.82
2017-10-01T01:09:53.021Z,12.86
2017-10-01T01:10:33.601Z,12.92
2017-10-01T01:11:14.187Z,12.83
2017-10-01T01:11:54.773Z,12.86
2017-10-01T01:12:35.356Z,12.85
2017-10-01T01:13:15.941Z,12.79
2017-10-01T01:13:56.512Z,12.83
2017-10-01T01:14:37.091Z,12.86
2017-10-01T01:15:17.662Z,12.9
2017-10-01T01:15:58.228Z,12.77
2017-10-01T01:16:38.804Z,12.74
2017-10-01T01:17:19.383Z,12.77
2017-10-01T01:17:59.957Z,12.83
2017-10-01T01:18:40.540Z,12.85
2017-10-01T01:19:21.123Z,12.92
2017-10-01T01:20:01.699Z,12.86
2017-10-01T01:20:42.282Z,12.82
2017-10-01T01:21:22.855Z,12.86
2017-10-01T01:22:03.456Z,12.77
2017-10-01T01:22:44.037Z,12.78
2017-10-01T01:23:24.615Z,12.77
2017-10-01T01:24:05.201Z,12.71
2017-10-01T01:24:45.781Z,12.78
2017-10-01T01:25:26.359Z,12.68
2017-10-01T01:26:06.941Z,12.75
2017-10-01T01:26:47.521Z,12.85
2017-10-01T01:27:28.107Z,12.85
2017-10-01T01:28:08.686Z,12.79
2017-10-01T01:28:49.265Z,12.82
2017-10-01T01:29:29.844Z,12.79
2017-10-01T01:30:10.427Z,12.79
2017-10-01T01:30:51.002Z,12.68
2017-10-01T01:31:31.588Z,12.78
2017-10-01T01:32:12.176Z,12.79
2017-10-01T01:32:52.756Z,12.71
2017-10-01T01:33:33.333Z,12.68
2017-10-01T01:34:13.921Z,12.67
2017-10-01T01:34:54.498Z,12.71
2017-10-01T01:35:35.081Z,12.71
2017-10-01T01:36:15.665Z,12.7
2017-10-01T01:36:56.246Z,12.7
2017-10-01T01:37:36.839Z,12.68
2017-10-01T01:38:17.423Z,12.74
2017-10-01T01:38:58.007Z,12.71
2017-10-01T01:39:38.591Z,12.65
2017-10-01T01:40:19.381Z,12.68
2017-10-01T01:40:59.961Z,12.64
2017-10-01T01:41:40.546Z,12.71
2017-10-01T01:42:21.125Z,12.75
2017-10-01T01:43:01.698Z,12.72
2017-10-01T01:43:42.287Z,12.71
2017-10-01T01:44:22.863Z,12.71
2017-10-01T01:45:03.434Z,12.67
2017-10-01T01:45:44.015Z,12.74
2017-10-01T01:46:24.596Z,12.59
2017-10-01T01:47:05.182Z,12.65
2017-10-01T01:47:45.759Z,12.52
2017-10-01T01:48:26.340Z,12.52
2017-10-01T01:49:06.937Z,12.57
2017-10-01T01:49:47.494Z,12.54
2017-10-01T01:50:28.066Z,12.57
2017-10-01T01:51:08.653Z,12.52
2017-10-01T01:51:49.221Z,12.65
2017-10-01T01:52:29.801Z,12.56
2017-10-01T01:53:10.377Z,12.46
2017-10-01T01:53:50.966Z,12.5
2017-10-01T01:54:31.546Z,12.54
2017-10-01T01:55:12.129Z,12.5
2017-10-01T01:55:52.712Z,12.45
2017-10-01T01:56:33.293Z,12.45
2017-10-01T01:57:13.869Z,12.47
2017-10-01T01:57:54.454Z,12.41
2017-10-01T01:58:35.038Z,12.53
2017-10-01T01:59:15.617Z,12.5
2017-10-01T01:59:56.200Z,12.47
2017-10-01T02:00:36.781Z,12.46
2017-10-01T02:01:17.366Z,12.5
2017-10-01T02:01:57.943Z,12.41
2017-10-01T02:02:38.530Z,12.47
2017-10-01T02:03:19.107Z,12.42
2017-10-01T02:03:59.680Z,12.47
2017-10-01T02:04:40.261Z,12.39
2017-10-01T02:05:20.850Z,12.39
2017-10-01T02:06:01.439Z,12.41
2017-10-01T02:06:42.020Z,12.46
2017-10-01T02:07:22.610Z,12.39
2017-10-01T02:08:03.196Z,12.46
2017-10-01T02:08:43.778Z,12.46
2017-10-01T02:09:24.362Z,12.45
2017-10-01T02:10:04.935Z,12.39
2017-10-01T02:10:45.516Z,12.5
2017-10-01T02:11:26.092Z,12.46
2017-10-01T02:12:06.669Z,12.45
2017-10-01T02:12:47.250Z,12.37
2017-10-01T02:13:27.822Z,12.46
2017-10-01T02:14:08.403Z,12.41
2017-10-01T02:14:48.991Z,12.41
2017-10-01T02:15:29.571Z,12.46
2017-10-01T02:16:10.156Z,12.39
2017-10-01T02:16:50.731Z,12.38
2017-10-01T02:17:46.068Z,12.37
2017-10-01T02:18:26.644Z,12.37
2017-10-01T02:19:07.228Z,12.32
2017-10-01T02:19:47.798Z,12.32
2017-10-01T02:20:28.377Z,12.32
2017-10-01T02:21:08.963Z,12.34
2017-10-01T02:21:49.541Z,12.38
2017-10-01T02:22:30.116Z,12.34
2017-10-01T02:23:10.701Z,12.37
2017-10-01T02:23:51.284Z,12.31
2017-10-01T02:24:31.866Z,12.35
2017-10-01T02:25:12.449Z,12.41
2017-10-01T02:25:53.035Z,12.35
2017-10-01T02:26:33.615Z,12.39
2017-10-01T02:27:14.176Z,12.35
2017-10-01T02:27:54.766Z,12.37
2017-10-01T02:28:35.345Z,12.39
2017-10-01T02:29:15.918Z,12.35
2017-10-01T02:29:56.489Z,12.42
2017-10-01T02:30:37.068Z,12.41
2017-10-01T02:31:17.652Z,12.37
2017-10-01T02:31:58.234Z,12.39
2017-10-01T02:32:38.816Z,12.27
2017-10-01T02:33:19.396Z,12.37
2017-10-01T02:33:59.969Z,12.38
2017-10-01T02:34:40.549Z,12.34
2017-10-01T02:35:21.133Z,12.38
2017-10-01T02:36:01.711Z,12.28
2017-10-01T02:36:42.287Z,12.24
2017-10-01T02:37:22.868Z,12.27
2017-10-01T02:38:03.450Z,12.29
2017-10-01T02:38:44.031Z,12.29
2017-10-01T02:39:24.616Z,12.24
2017-10-01T02:40:05.204Z,12.24
2017-10-01T02:40:45.790Z,12.27
2017-10-01T02:41:26.362Z,12.29
2017-10-01T02:42:06.935Z,12.24
2017-10-01T02:42:47.520Z,12.21
2017-10-01T02:43:28.086Z,12.24
2017-10-01T02:44:08.668Z,12.21
2017-10-01T02:44:49.231Z,12.23
2017-10-01T02:45:29.811Z,12.29
2017-10-01T02:46:10.395Z,12.29
2017-10-01T02:46:50.973Z,12.24
2017-10-01T02:48:43.592Z,12.24
2017-10-01T02:49:24.169Z,12.31
2017-10-01T02:50:04.753Z,12.35
2017-10-01T02:50:45.332Z,12.39
2017-10-01T02:51:25.908Z,12.28
2017-10-01T02:52:06.502Z,12.23
2017-10-01T02:52:47.071Z,12.27
2017-10-01T02:53:27.663Z,12.24
2017-10-01T02:54:08.230Z,12.21
2017-10-01T02:54:48.811Z,12.24
2017-10-01T02:55:29.391Z,12.34
2017-10-01T02:56:09.960Z,12.28
2017-10-01T02:56:50.544Z,12.28
2017-10-01T02:57:31.100Z,12.24
2017-10-01T02:58:11.689Z,12.24
2017-10-01T02:58:52.274Z,12.32
2017-10-01T02:59:32.847Z,12.28
2017-10-01T03:01:30.555Z,12.24
2017-10-01T03:02:11.141Z,12.29
2017-10-01T03:02:51.720Z,12.27
2017-10-01T03:03:32.292Z,12.29
2017-10-01T03:04:12.866Z,12.32
2017-10-01T03:04:53.444Z,12.29
2017-10-01T03:05:34.030Z,12.28
2017-10-01T03:06:14.611Z,12.28
2017-10-01T03:06:55.179Z,12.28
2017-10-01T03:07:35.749Z,12.34
2017-10-01T03:08:16.327Z,12.32
2017-10-01T03:08:56.911Z,12.34
2017-10-01T03:09:37.490Z,12.31
2017-10-01T03:10:18.067Z,12.27
2017-10-01T03:10:58.658Z,12.28
2017-10-01T03:11:39.224Z,12.24
2017-10-01T03:12:19.797Z,12.23
2017-10-01T03:13:00.379Z,12.28
2017-10-01T03:13:40.961Z,12.23
2017-10-01T03:14:21.535Z,12.24
2017-10-01T03:15:02.110Z,12.21
2017-10-01T03:15:42.692Z,12.2
2017-10-01T03:16:23.272Z,12.13
2017-10-01T03:17:03.851Z,12.23
2017-10-01T03:17:44.425Z,12.16
2017-10-01T03:18:25.002Z,12.23
2017-10-01T03:19:05.596Z,12.23
2017-10-01T03:19:46.171Z,12.19
2017-10-01T03:20:26.754Z,12.14
2017-10-01T03:21:07.334Z,12.13
2017-10-01T03:21:47.924Z,12.14
2017-10-01T03:22:28.503Z,12.14
2017-10-01T03:23:09.076Z,12.16
2017-10-01T03:23:49.654Z,12.09
2017-10-01T03:24:30.243Z,12.16
2017-10-01T03:25:10.824Z,12.24
2017-10-01T03:25:51.404Z,12.13
2017-10-01T03:26:31.979Z,12.14
2017-10-01T03:27:12.559Z,12.14
2017-10-01T03:27:53.138Z,12.13
2017-10-01T03:28:33.717Z,12.14
2017-10-01T03:29:14.303Z,12.16
2017-10-01T03:29:54.898Z,12.14
2017-10-01T03:30:35.477Z,12.14
2017-10-01T03:31:16.057Z,12.16
2017-10-01T03:31:56.635Z,12.24
2017-10-01T03:32:37.216Z,12.19
2017-10-01T03:33:17.786Z,12.19
2017-10-01T03:33:58.367Z,12.13
2017-10-01T03:34:38.948Z,12.16
2017-10-01T03:35:19.536Z,12.13
2017-10-01T03:36:00.121Z,12.14
2017-10-01T03:36:40.686Z,12.13
2017-10-01T03:37:21.262Z,12.14
2017-10-01T03:38:01.828Z,12.14
2017-10-01T03:38:42.414Z,12.16
2017-10-01T03:39:22.994Z,12.27
2017-10-01T03:40:03.573Z,12.14
2017-10-01T03:40:44.151Z,12.16
2017-10-01T03:41:24.731Z,12.13
2017-10-01T03:42:05.337Z,12.19
2017-10-01T03:42:45.902Z,12.14
2017-10-01T03:43:26.481Z,12.19
2017-10-01T03:44:07.055Z,12.13
2017-10-01T03:44:47.635Z,12.12
2017-10-01T03:45:28.221Z,12.17
2017-10-01T03:46:08.801Z,12.09
2017-10-01T03:46:49.378Z,12.13
2017-10-01T03:47:29.954Z,12.1
2017-10-01T03:48:10.538Z,12.14
2017-10-01T03:48:51.123Z,12.17
2017-10-01T03:49:31.700Z,12.02
2017-10-01T03:50:12.281Z,12.17
2017-10-01T03:50:52.867Z,12.16
2017-10-01T03:51:33.445Z,12.17
2017-10-01T03:52:14.025Z,12.12
2017-10-01T03:52:54.610Z,12.14
2017-10-01T03:53:35.190Z,12.16
2017-10-01T03:54:15.772Z,12.14
2017-10-01T03:54:56.355Z,12.21
2017-10-01T03:55:36.928Z,12.24
2017-10-01T03:56:17.528Z,12.28
2017-10-01T03:56:58.105Z,12.24
2017-10-01T03:57:38.693Z,12.24
2017-10-01T03:58:19.274Z,12.23
2017-10-01T03:58:59.845Z,12.14
2017-10-01T03:59:40.460Z,12.19
2017-10-01T04:00:21.121Z,12.16
2017-10-01T04:01:01.704Z,12.1
2017-10-01T04:01:42.290Z,12.07
2017-10-01T04:02:22.864Z,12.14
2017-10-01T04:03:03.448Z,12.12
2017-10-01T04:03:44.023Z,12.14
2017-10-01T04:04:24.597Z,12.14
2017-10-01T04:06:37.508Z,12.16
2017-10-01T04:07:18.166Z,12.23
2017-10-01T04:07:58.828Z,12.12
2017-10-01T04:08:39.480Z,12.24
2017-10-01T04:09:20.103Z,12.27
2017-10-01T04:10:00.681Z,12.12
2017-10-01T04:10:41.348Z,12.13
2017-10-01T04:11:21.990Z,12.19
2017-10-01T04:12:02.573Z,12.24
2017-10-01T04:12:43.187Z,12.24
2017-10-01T04:13:23.852Z,12.14
2017-10-01T04:14:04.516Z,12.13
2017-10-01T04:14:45.204Z,12.16
2017-10-01T04:15:25.833Z,12.23
2017-10-01T04:16:06.416Z,12.23
2017-10-01T04:16:46.988Z,12.13
2017-10-01T04:17:27.621Z,12.23
2017-10-01T04:18:08.201Z,12.14
2017-10-01T04:18:48.841Z,12.17
2017-10-01T04:19:30.368Z,12.14
2017-10-01T04:20:11.025Z,12.14
2017-10-01T04:20:51.599Z,12.12
2017-10-01T04:21:32.183Z,12.13
2017-10-01T04:22:12.756Z,12.14
2017-10-01T04:22:53.355Z,12.2
2017-10-01T04:23:34.037Z,11.99
2017-10-01T04:24:14.761Z,12.1
2017-10-01T04:24:55.435Z,12.16
2017-10-01T04:25:36.075Z,12.09
2017-10-01T04:26:16.666Z,12.16
2017-10-01T04:26:57.375Z,12.16
2017-10-01T04:27:37.947Z,12.16
2017-10-01T04:28:18.549Z,12.16
2017-10-01T04:28:59.101Z,12.13
2017-10-01T04:29:39.711Z,12.16
2017-10-01T04:30:20.266Z,12.16
2017-10-01T04:31:00.860Z,12.13
2017-10-01T04:31:41.440Z,12.17
2017-10-01T04:32:22.020Z,12.23
2017-10-01T04:33:02.589Z,12.28
2017-10-01T04:33:43.183Z,12.39
2017-10-01T04:34:23.743Z,12.34
2017-10-01T04:35:04.396Z,12.28
2017-10-01T04:35:45.220Z,12.16
2017-10-01T04:36:25.943Z,12.13
2017-10-01T04:37:06.663Z,12.12
2017-10-01T04:37:47.246Z,12.13
2017-10-01T04:38:27.833Z,12.14
2017-10-01T04:39:08.413Z,12.19
2017-10-01T04:39:48.986Z,12.16
2017-10-01T04:40:29.569Z,12.16
2017-10-01T04:41:10.157Z,12.13
2017-10-01T04:41:50.734Z,12.02
2017-10-01T04:42:31.312Z,12.13
2017-10-01T04:43:11.892Z,12.14
2017-10-01T04:43:52.485Z,12.09
2017-10-01T04:44:33.105Z,12.05
2017-10-01T04:45:13.733Z,12.02
2017-10-01T04:45:54.309Z,12.01
2017-10-01T04:46:34.882Z,12.09
2017-10-01T04:47:15.509Z,12.04
2017-10-01T04:47:56.113Z,12.07
2017-10-01T04:48:36.943Z,12.09
2017-10-01T04:49:17.703Z,12.02
2017-10-01T04:49:58.306Z,12.04
2017-10-01T04:50:38.881Z,12.04
2017-10-01T04:51:19.460Z,12.1
2017-10-01T04:52:00.034Z,12.07
2017-10-01T04:52:40.916Z,12.05
2017-10-01T04:53:21.508Z,12.04
2017-10-01T04:54:02.189Z,12.05
2017-10-01T04:54:42.801Z,12.01
2017-10-01T04:55:23.434Z,12.04
2017-10-01T04:56:04.015Z,11.94
2017-10-01T04:56:44.591Z,11.9
2017-10-01T04:57:25.162Z,11.88
2017-10-01T04:58:05.806Z,11.91
2017-10-01T04:58:46.430Z,11.91
2017-10-01T04:59:27.007Z,11.9
2017-10-01T05:00:07.659Z,11.9
2017-10-01T05:00:48.223Z,11.86
2017-10-01T05:01:28.924Z,11.94
2017-10-01T05:02:09.736Z,11.95
2017-10-01T05:02:50.311Z,11.96
2017-10-01T05:03:31.032Z,11.82
2017-10-01T05:04:11.690Z,12.02
2017-10-01T05:04:52.340Z,11.99
2017-10-01T05:05:32.908Z,12.01
2017-10-01T05:06:13.476Z,12.04
2017-10-01T05:06:54.035Z,11.9
2017-10-01T05:07:34.655Z,11.95
2017-10-01T05:08:15.216Z,11.9
2017-10-01T05:08:55.817Z,11.91
2017-10-01T05:09:36.402Z,11.9
2017-10-01T05:10:16.968Z,11.94
2017-10-01T05:10:57.540Z,11.95
2017-10-01T05:11:38.101Z,11.94
2017-10-01T05:12:18.685Z,11.85
2017-10-01T05:12:59.284Z,11.83
2017-10-01T05:13:39.923Z,11.86
2017-10-01T05:14:20.539Z,11.88
2017-10-01T05:15:01.103Z,11.94
2017-10-01T05:15:41.667Z,11.91
2017-10-01T05:16:22.918Z,11.91
2017-10-01T05:17:06.732Z,11.94
2017-10-01T05:17:47.426Z,11.9
2017-10-01T05:18:29.901Z,11.85
2017-10-01T05:19:10.584Z,11.83
2017-10-01T05:19:51.348Z,11.94
2017-10-01T05:20:31.852Z,11.9
2017-10-01T05:21:13.432Z,11.8
2017-10-01T05:21:56.791Z,11.95
2017-10-01T05:22:37.502Z,11.88
2017-10-01T05:23:19.820Z,11.8
2017-10-01T05:25:11.987Z,11.9
2017-10-01T05:26:05.081Z,11.76
2017-10-01T05:27:59.596Z,11.79
2017-10-01T05:28:43.780Z,11.79
2017-10-01T05:29:31.048Z,11.91
2017-10-01T05:30:12.605Z,11.83
2017-10-01T05:30:54.260Z,11.82
2017-10-01T05:31:42.363Z,11.82
2017-10-01T05:33:22.457Z,11.91
2017-10-01T05:35:36.316Z,11.94
2017-10-01T05:39:27.414Z,11.86
2017-10-01T05:40:07.973Z,11.85
2017-10-01T05:40:48.634Z,11.76
2017-10-01T05:41:30.719Z,11.75
2017-10-01T05:42:11.349Z,11.83
2017-10-01T05:42:52.866Z,11.79
2017-10-01T05:43:33.460Z,11.88
2017-10-01T05:47:04.433Z,11.91
2017-10-01T05:47:44.981Z,11.94
2017-10-01T05:48:25.897Z,11.91
2017-10-01T05:49:06.518Z,11.83
2017-10-01T05:49:47.182Z,11.79
2017-10-01T05:50:27.717Z,11.85
2017-10-01T05:51:08.271Z,11.75
2017-10-01T05:51:49.001Z,11.79
2017-10-01T05:52:29.501Z,11.82
2017-10-01T05:53:10.181Z,11.79
2017-10-01T05:53:50.800Z,11.86
2017-10-01T05:54:33.196Z,11.72
2017-10-01T05:55:13.828Z,11.76
2017-10-01T05:55:54.234Z,11.79
2017-10-01T05:56:34.803Z,11.79
2017-10-01T05:57:15.369Z,11.72
2017-10-01T05:57:55.953Z,11.83
2017-10-01T05:58:36.529Z,11.72
2017-10-01T05:59:17.102Z,11.7
2017-10-01T06:01:14.914Z,11.78
2017-10-01T06:01:55.403Z,11.79
2017-10-01T06:02:35.981Z,11.88
2017-10-01T06:03:16.552Z,11.83
2017-10-01T06:03:57.124Z,11.78
2017-10-01T06:04:37.640Z,11.8
2017-10-01T06:05:18.196Z,11.79
2017-10-01T06:05:58.768Z,11.91
2017-10-01T06:06:39.353Z,11.9
2017-10-01T06:07:19.913Z,11.91
2017-10-01T06:08:00.483Z,11.9
2017-10-01T06:08:41.054Z,11.9
2017-10-01T06:09:21.645Z,11.83
2017-10-01T06:10:06.797Z,11.86
2017-10-01T06:10:47.910Z,11.83
2017-10-01T06:11:28.477Z,11.94
2017-10-01T06:12:09.024Z,11.95
2017-10-01T06:12:49.602Z,12.01
2017-10-01T06:13:30.167Z,11.98
2017-10-01T06:14:10.733Z,12.07
2017-10-01T06:14:51.291Z,12.09
2017-10-01T06:15:31.852Z,12.14
2017-10-01T06:16:12.415Z,12.17
2017-10-01T06:16:52.983Z,12.02
2017-10-01T06:17:33.558Z,12.02
2017-10-01T06:18:14.134Z,12.04
2017-10-01T06:18:54.709Z,12.05
2017-10-01T06:19:35.290Z,12.14
2017-10-01T06:20:15.866Z,12.14
2017-10-01T06:21:14.087Z,12.13
2017-10-01T06:23:07.125Z,12.02
2017-10-01T06:23:47.875Z,12.09
2017-10-01T06:24:28.549Z,12.04
2017-10-01T06:29:31.829Z,12.01
2017-10-01T06:30:13.024Z,12.01
2017-10-01T06:30:57.501Z,12.01
2017-10-01T06:31:40.776Z,12.01
2017-10-01T06:32:29.566Z,12.04
2017-10-01T06:33:12.457Z,12.07
2017-10-01T06:33:54.024Z,12.02
2017-10-01T06:34:36.390Z,12.16
2017-10-01T06:35:16.940Z,12.13
2017-10-01T06:35:57.578Z,12.13
2017-10-01T06:36:39.559Z,12.09
2017-10-01T06:37:21.346Z,12.14
2017-10-01T06:38:02.627Z,12.12
2017-10-01T06:38:43.643Z,12.24
2017-10-01T06:39:24.586Z,12.29
2017-10-01T06:41:38.196Z,12.14
2017-10-01T06:42:21.507Z,12.16
2017-10-01T06:43:05.525Z,12.16
2017-10-01T06:43:48.089Z,12.16
2017-10-01T06:44:42.998Z,12.17
2017-10-01T06:45:23.818Z,12.16
2017-10-01T06:46:04.885Z,12.16
2017-10-01T06:46:46.485Z,12.17
2017-10-01T06:47:26.945Z,12.14
2017-10-01T06:48:07.908Z,12.13
2017-10-01T06:48:48.712Z,12.14
2017-10-01T06:49:29.397Z,12.24
2017-10-01T06:50:09.880Z,12.24
2017-10-01T06:50:50.699Z,12.28
2017-10-01T06:51:31.331Z,12.27
2017-10-01T06:52:12.086Z,12.41
2017-10-01T06:52:52.749Z,12.34
2017-10-01T06:53:33.330Z,12.38
2017-10-01T06:54:18.267Z,12.38
2017-10-01T06:54:59.096Z,12.31
2017-10-01T06:55:40.305Z,12.31
2017-10-01T06:56:22.977Z,12.28
2017-10-01T06:57:06.183Z,12.23
2017-10-01T06:57:48.446Z,12.37
2017-10-01T06:58:29.852Z,12.49
2017-10-01T06:59:10.411Z,12.46
2017-10-01T06:59:50.972Z,12.49
2017-10-01T07:00:32.060Z,12.54
2017-10-01T07:01:12.635Z,12.53
2017-10-01T07:01:53.403Z,12.59
2017-10-01T07:02:34.158Z,12.53
2017-10-01T07:03:14.823Z,12.46
2017-10-01T07:03:55.408Z,12.64
2017-10-01T07:04:36.077Z,12.71
2017-10-01T07:05:16.647Z,12.75
2017-10-01T07:05:57.225Z,12.79
2017-10-01T07:06:37.777Z,12.7
2017-10-01T07:07:18.578Z,12.85
2017-10-01T07:07:59.466Z,12.9
2017-10-01T07:08:40.141Z,12.93
2017-10-01T07:09:20.810Z,12.9
2017-10-01T07:10:02.434Z,12.9
2017-10-01T07:10:43.460Z,13.01
2017-10-01T07:11:28.175Z,13.14
2017-10-01T07:13:08.658Z,13.2
2017-10-01T07:13:50.385Z,13.23
2017-10-01T07:14:31.019Z,13.26
2017-10-01T07:15:28.416Z,13.28
2017-10-01T07:16:09.565Z,13.39
2017-10-01T07:16:50.408Z,13.39
2017-10-01T07:17:31.382Z,13.3
2017-10-01T07:18:11.996Z,13.33
2017-10-01T07:18:52.641Z,13.39
2017-10-01T07:19:33.473Z,13.41
2017-10-01T07:20:14.069Z,13.46
2017-10-01T07:20:54.974Z,13.54
2017-10-01T07:21:36.230Z,13.66
2017-10-01T07:22:17.662Z,13.64
2017-10-01T07:22:58.221Z,13.66
2017-10-01T07:23:38.776Z,13.82
2017-10-01T07:24:19.354Z,13.85
2017-10-01T07:24:59.916Z,13.99
2017-10-01T07:25:40.473Z,13.99
2017-10-01T07:26:27.835Z,13.95
2017-10-01T07:27:09.928Z,13.91
2017-10-01T07:28:10.853Z,14.07
2017-10-01T07:28:51.436Z,14.15
2017-10-01T07:29:40.708Z,14.25
2017-10-01T07:31:18.075Z,14.35
2017-10-01T07:31:58.615Z,14.32
2017-10-01T07:32:39.196Z,14.42
2017-10-01T07:33:19.809Z,14.37
2017-10-01T07:34:01.084Z,14.37
2017-10-01T07:34:42.471Z,14.33
2017-10-01T07:35:23.054Z,14.43
2017-10-01T07:36:03.784Z,14.43
2017-10-01T07:36:44.442Z,14.43
2017-10-01T07:37:25.233Z,14.46
2017-10-01T07:38:06.775Z,14.47
2017-10-01T07:38:47.338Z,14.51
2017-10-01T07:39:27.916Z,14.5
2017-10-01T07:40:08.589Z,14.46
2017-10-01T07:40:49.204Z,14.46
2017-10-01T07:41:29.777Z,14.32
2017-10-01T07:42:10.352Z,14.37
2017-10-01T07:42:52.885Z,14.42
2017-10-01T07:43:33.452Z,14.36
2017-10-01T07:44:14.579Z,14.36
2017-10-01T07:44:55.163Z,14.37
2017-10-01T07:45:35.761Z,14.35
2017-10-01T07:46:16.329Z,14.24
2017-10-01T07:46:58.584Z,14.14
2017-10-01T07:47:39.166Z,13.96
2017-10-01T07:48:22.833Z,13.95
2017-10-01T07:49:04.114Z,13.88
2017-10-01T07:49:46.580Z,13.99
2017-10-01T07:50:29.443Z,13.95
2017-10-01T07:51:12.076Z,13.89
2017-10-01T07:51:53.595Z,14.06
2017-10-01T07:52:34.134Z,13.99
2017-10-01T07:53:14.723Z,13.99
2017-10-01T07:53:55.323Z,13.88
2017-10-01T07:54:36.104Z,13.89
2017-10-01T07:55:17.281Z,13.91
2017-10-01T07:55:59.018Z,13.87
2017-10-01T07:56:39.589Z,14.02
2017-10-01T07:57:20.172Z,13.87
2017-10-01T07:58:00.739Z,13.91
2017-10-01T07:58:41.319Z,14.09
2017-10-01T07:59:21.904Z,14.12
2017-10-01T08:00:02.468Z,14.14
2017-10-01T08:00:43.164Z,14.15
2017-10-01T08:01:23.869Z,14.27
2017-10-01T08:02:04.566Z,14.22
2017-10-01T08:02:45.152Z,14.12
2017-10-01T08:03:25.735Z,14.28
2017-10-01T08:04:07.243Z,14.33
2017-10-01T08:04:48.889Z,14.36
2017-10-01T08:05:29.805Z,14.43
2017-10-01T08:06:11.653Z,14.45
2017-10-01T08:06:52.218Z,14.5
2017-10-01T08:07:33.371Z,14.43
2017-10-01T08:08:13.675Z,14.43
2017-10-01T08:08:55.992Z,14.54
2017-10-01T08:09:37.154Z,14.51
2017-10-01T08:10:17.901Z,14.5
2017-10-01T08:10:58.554Z,14.5
2017-10-01T08:11:39.157Z,14.62
2017-10-01T08:12:19.918Z,14.65
2017-10-01T08:13:00.505Z,14.68
2017-10-01T08:13:41.209Z,14.43
2017-10-01T08:14:22.802Z,14.52
2017-10-01T08:15:03.543Z,14.58
2017-10-01T08:15:45.350Z,14.61
2017-10-01T08:16:26.159Z,14.73
2017-10-01T08:17:07.377Z,14.78
2017-10-01T08:17:48.774Z,14.84
2017-10-01T08:18:29.572Z,14.81
2017-10-01T08:19:10.357Z,14.98
2017-10-01T08:19:51.224Z,15.16
2017-10-01T08:20:31.801Z,15.17
2017-10-01T08:21:12.700Z,15.49
2017-10-01T08:21:53.615Z,15.62
2017-10-01T08:22:34.181Z,15.56
2017-10-01T08:23:15.396Z,15.39
2017-10-01T08:23:55.962Z,15.49
2017-10-01T08:24:36.633Z,15.31
2017-10-01T08:25:17.125Z,15.43
2017-10-01T08:25:57.709Z,15.57
2017-10-01T08:26:38.470Z,15.71
2017-10-01T08:27:19.184Z,15.6
2017-10-01T08:27:59.773Z,15.68
2017-10-01T08:28:40.533Z,15.75
2017-10-01T08:29:21.106Z,15.69
2017-10-01T08:30:01.818Z,15.6
2017-10-01T08:30:44.301Z,15.51
2017-10-01T08:31:24.929Z,15.31
2017-10-01T08:32:05.571Z,15.06
2017-10-01T08:32:46.220Z,15.1
2017-10-01T08:33:26.918Z,15.21
2017-10-01T08:34:07.501Z,15.27
2017-10-01T08:34:48.083Z,15.23
2017-10-01T08:35:28.787Z,15.31
2017-10-01T08:36:09.405Z,15.47
2017-10-01T08:36:49.984Z,15.56
2017-10-01T08:37:30.800Z,15.47
2017-10-01T08:38:11.479Z,15.68
2017-10-01T08:38:52.153Z,15.82
2017-10-01T08:39:32.722Z,15.8
2017-10-01T08:40:13.306Z,15.78
2017-10-01T08:40:54.413Z,15.67
2017-10-01T08:41:34.877Z,15.82
2017-10-01T08:42:15.452Z,15.82
2017-10-01T08:42:56.257Z,15.78
2017-10-01T08:43:37.075Z,15.93
2017-10-01T08:44:17.651Z,15.97
2017-10-01T08:44:59.067Z,15.8
2017-10-01T08:45:39.629Z,15.78
2017-10-01T08:46:20.444Z,15.69
2017-10-01T08:47:01.427Z,15.56
2017-10-01T08:47:42.241Z,15.31
2017-10-01T08:48:47.718Z,15.39
2017-10-01T08:49:28.359Z,15.17
2017-10-01T08:50:09.276Z,15.16
2017-10-01T08:50:49.957Z,15.14
2017-10-01T08:51:30.336Z,15.06
2017-10-01T08:52:10.936Z,15.16
2017-10-01T08:52:51.615Z,15.38
2017-10-01T08:53:32.207Z,15.32
2017-10-01T08:54:12.840Z,15.43
2017-10-01T08:54:53.750Z,15.39
2017-10-01T08:55:34.838Z,15.49
2017-10-01T08:56:15.229Z,15.57
2017-10-01T08:56:57.705Z,15.46
2017-10-01T08:57:37.901Z,15.27
2017-10-01T08:58:18.302Z,15.25
2017-10-01T08:58:59.612Z,15.13
2017-10-01T08:59:40.201Z,15.23
2017-10-01T09:00:20.781Z,15.27
2017-10-01T09:01:01.372Z,15.19
2017-10-01T09:01:41.957Z,15.35
2017-10-01T09:02:22.540Z,15.34
2017-10-01T09:03:03.125Z,15.57
2017-10-01T09:03:43.693Z,15.57
2017-10-01T09:04:24.273Z,15.62
2017-10-01T09:05:04.854Z,15.69
2017-10-01T09:05:45.442Z,15.71
2017-10-01T09:06:26.021Z,15.82
2017-10-01T09:07:06.612Z,15.8
2017-10-01T09:07:47.193Z,15.96
2017-10-01T09:08:27.782Z,15.94
2017-10-01T09:09:08.548Z,16
2017-10-01T09:09:49.121Z,16.08
2017-10-01T09:10:29.980Z,16.09
2017-10-01T09:11:10.701Z,16.14
2017-10-01T09:11:51.281Z,16.33
2017-10-01T09:12:31.866Z,16.25
2017-10-01T09:13:12.560Z,16.31
2017-10-01T09:13:53.122Z,16.08
2017-10-01T09:14:33.696Z,16.02
2017-10-01T09:15:14.272Z,15.87